Aberdeen, Washington
Current Conditions -  °F | °C
As of 4:53 PM on Monday 24 Nov 2014 (Local Time) from KHQM Reporting Station
Light Rain Light Rain  
Wind Chill: 51°   Ceiling: 800
Heat Index: 51°   Visibility: 3mi
Dew Point: 50°   Wind: 13mph
Humidity: 96%   Direction: 160°SSE
Pressure: 30.14"   Gusts: 18mph
Location:  46.98°N, 123.81°W
Report Text: KHQM 250053Z AUTO 16011G16KT 3SM -RA BR OVC008 11/10 A3014 RMK AO2 CIG 006V011 SLP210 P0006 T01060100
Loading
Personal Weather Stations






























Interactive Weather Map New forecast layout! Learn more

10-Day Weather Forecast

Advertisements
Track Severe Weather on mobile